Time;durP1;ratioP1;P1;durP2;ratioP2;P2;SDS_P1;SDS_P2;PMS_P1;PMS_P2;Temp;Humidity;BMP_temperature;BMP_pressure;BME280_temperature;BME280_humidity;BME280_pressure;Samples;Min_cycle;Max_cycle;Signal;HPM_P1;HPM_P2
2024/04/23 00:01:21;;;;;;;3.93;2.43;;;11.30;99.90;;;12.67;51.86;101723.06;6273474;21;122731;-33
2024/04/23 00:03:47;;;;;;;2.47;1.70;;;11.50;99.90;;;12.69;51.96;101723.00;6258709;21;93403;-38
2024/04/23 00:06:13;;;;;;;1.67;1.20;;;11.40;99.90;;;12.49;52.19;101719.13;6294481;21;93497;-36
2024/04/23 00:08:44;;;;;;;4.00;2.10;;;11.30;99.90;;;12.49;51.98;101723.56;6303052;21;96364;-38
2024/04/23 00:11:10;;;;;;;3.40;2.20;;;11.20;99.90;;;12.51;51.80;101719.97;6372711;21;100708;-34
2024/04/23 00:13:36;;;;;;;4.40;3.33;;;11.20;99.90;;;12.37;48.15;101723.88;6319141;21;96515;-37
2024/04/23 00:16:04;;;;;;;5.10;3.00;;;11.10;99.90;;;12.30;49.34;101717.91;6274671;21;106365;-35
2024/04/23 00:18:31;;;;;;;6.90;3.37;;;11.00;99.90;;;12.13;49.94;101720.94;6179069;21;98147;-35
2024/04/23 00:20:57;;;;;;;5.53;3.43;;;10.80;99.90;;;11.95;50.17;101721.41;6355751;21;94175;-36
2024/04/23 00:23:23;;;;;;;5.27;3.50;;;10.60;99.90;;;12.02;49.14;101723.00;6263448;21;93544;-37
2024/04/23 00:25:49;;;;;;;2.37;1.87;;;10.70;99.90;;;11.95;53.49;101716.13;6320710;21;111957;-36
2024/04/23 00:28:15;;;;;;;5.27;2.40;;;10.50;99.90;;;11.93;54.06;101710.00;6274296;21;101584;-35
2024/04/23 00:30:40;;;;;;;3.77;2.27;;;10.50;99.90;;;11.98;53.96;101710.75;6261400;21;101607;-36
2024/04/23 00:33:06;;;;;;;2.73;1.70;;;10.60;99.90;;;12.17;54.37;101714.69;6299344;21;105131;-38
2024/04/23 00:35:33;;;;;;;2.17;1.67;;;10.80;99.90;;;12.23;53.82;101710.13;6200972;21;103775;-38
2024/04/23 00:37:59;;;;;;;4.30;3.03;;;10.90;99.90;;;12.21;52.05;101708.41;6321347;21;94387;-36
2024/04/23 00:40:29;;;;;;;4.70;2.77;;;10.90;99.90;;;12.28;53.21;101714.38;6339983;21;95608;-36
2024/04/23 00:42:58;;;;;;;4.13;2.80;;;11.00;99.90;;;12.17;51.10;101704.13;6238909;21;94604;-36
2024/04/23 00:45:33;;;;;;;4.97;2.80;;;10.80;99.90;;;12.17;51.16;101704.13;6297988;21;94193;-37
2024/04/23 00:48:00;;;;;;;5.10;3.10;;;10.80;99.90;;;12.09;49.91;101692.84;6230722;21;98040;-36
2024/04/23 00:50:27;;;;;;;2.97;2.20;;;10.80;99.90;;;12.04;52.18;101700.03;6262534;21;98128;-36
2024/04/23 00:52:54;;;;;;;4.70;2.93;;;10.60;99.90;;;11.99;52.64;101695.75;6349079;21;95291;-37
2024/04/23 00:55:25;;;;;;;5.40;3.00;;;10.60;99.90;;;11.90;51.45;101697.75;6295342;21;94242;-36
2024/04/23 00:57:50;;;;;;;4.13;2.63;;;10.60;99.90;;;11.83;51.29;101695.25;6256442;21;100927;-37
2024/04/23 01:00:16;;;;;;;3.97;2.60;;;10.50;99.90;;;11.87;53.39;101696.94;6321221;21;119684;-36
2024/04/23 01:02:42;;;;;;;5.23;3.70;;;10.50;99.90;;;11.84;51.87;101697.00;6320780;21;109197;-37
2024/04/23 01:05:10;;;;;;;4.27;3.17;;;10.50;99.90;;;11.72;49.48;101692.00;6247294;21;110663;-36
2024/04/23 01:07:36;;;;;;;3.67;2.03;;;10.40;99.90;;;11.90;53.50;101700.38;6312541;21;94657;-36
2024/04/23 01:10:02;;;;;;;2.87;2.23;;;10.50;99.90;;;11.97;53.43;101690.50;6330091;21;96082;-36
2024/04/23 01:12:28;;;;;;;4.33;2.70;;;10.60;99.90;;;11.86;49.80;101692.53;6449076;21;93475;-35
2024/04/23 01:14:55;;;;;;;8.53;3.50;;;10.60;99.90;;;11.52;48.42;101690.69;6427160;21;96378;-36
2024/04/23 01:17:22;;;;;;;4.10;3.00;;;10.30;99.90;;;11.42;50.74;101699.72;6439342;21;113791;-36
2024/04/23 01:19:58;;;;;;;4.90;3.13;;;10.20;99.90;;;11.54;53.95;101696.78;6466749;21;120891;-35
2024/04/23 01:22:34;;;;;;;3.43;1.83;;;10.20;99.90;;;11.72;55.10;101700.81;6401318;21;100445;-36
2024/04/23 01:25:09;;;;;;;4.53;3.10;;;10.30;99.90;;;11.74;54.21;101698.13;6472782;21;97618;-36
2024/04/23 01:27:36;;;;;;;2.90;1.93;;;10.30;99.90;;;11.86;54.51;101689.91;6468370;21;95718;-34
2024/04/23 01:30:04;;;;;;;3.40;1.90;;;10.50;99.90;;;11.99;54.25;101701.91;6438370;21;93650;-35
2024/04/23 01:32:35;;;;;;;4.53;2.40;;;10.70;99.90;;;12.00;53.53;101693.06;6379528;21;93097;-35
2024/04/23 01:35:04;;;;;;;5.90;3.03;;;10.70;99.90;;;12.01;52.31;101689.53;6400758;21;101405;-34
2024/04/23 01:37:32;;;;;;;4.23;3.27;;;10.70;99.90;;;11.84;49.80;101691.72;6412026;21;94397;-36
2024/04/23 01:40:03;;;;;;;5.30;3.37;;;10.60;99.90;;;11.71;49.60;101691.09;6330723;21;94398;-35
2024/04/23 01:42:30;;;;;;;3.60;2.10;;;10.40;99.90;;;11.62;52.55;101692.22;6414577;21;104173;-35
2024/04/23 01:44:59;;;;;;;3.13;1.93;;;10.30;99.90;;;11.67;54.40;101688.56;6411105;21;93776;-37
2024/04/23 01:47:25;;;;;;;2.37;1.70;;;10.20;99.90;;;11.77;54.93;101687.47;6493688;21;95574;-36
2024/04/23 01:49:51;;;;;;;2.60;1.97;;;10.20;99.90;;;11.88;54.28;101693.41;6480265;21;93781;-35
2024/04/23 01:52:18;;;;;;;4.30;2.70;;;10.40;99.90;;;11.97;53.20;101682.56;6406532;21;113017;-35
2024/04/23 01:54:44;;;;;;;3.93;3.07;;;10.60;99.90;;;11.89;51.65;101679.28;6445465;21;93551;-35
2024/04/23 01:57:10;;;;;;;4.07;2.33;;;10.50;99.90;;;11.92;52.88;101679.19;6477250;21;122533;-34
2024/04/23 01:59:44;;;;;;;5.23;3.07;;;10.50;99.90;;;11.89;52.54;101687.19;6449545;21;114482;-37
2024/04/23 02:02:10;;;;;;;6.83;3.13;;;10.40;99.90;;;11.89;52.05;101685.44;6491065;21;93706;-36
2024/04/23 02:04:40;;;;;;;3.07;2.17;;;10.40;99.90;;;11.92;54.07;101679.19;6478536;21;93630;-35
2024/04/23 02:07:06;;;;;;;1.50;1.40;;;10.40;99.90;;;12.03;54.34;101681.56;6408812;21;96003;-37
2024/04/23 02:09:33;;;;;;;4.67;2.57;;;10.60;99.90;;;12.02;53.04;101686.00;6447428;21;93384;-35
2024/04/23 02:12:03;;;;;;;2.93;2.47;;;10.60;99.90;;;11.86;51.91;101679.31;6447803;21;93565;-35
2024/04/23 02:14:29;;;;;;;2.80;1.97;;;10.40;99.90;;;11.89;53.41;101671.34;6446244;21;93093;-36
2024/04/23 02:16:58;;;;;;;4.33;3.03;;;10.40;99.90;;;11.86;52.32;101668.75;6481766;21;93963;-35
2024/04/23 02:19:24;;;;;;;4.27;3.20;;;10.40;99.90;;;11.86;53.23;101681.97;6491632;21;105631;-36
2024/04/23 02:21:50;;;;;;;4.87;3.40;;;10.30;99.90;;;11.54;49.99;101678.28;6493630;21;104555;-35
2024/04/23 02:24:15;;;;;;;4.47;2.87;;;10.10;99.90;;;11.58;51.79;101684.41;6468211;21;107641;-37
2024/04/23 02:26:41;;;;;;;5.77;2.47;;;10.10;99.90;;;11.51;52.02;101678.38;6422863;21;96173;-35
2024/04/23 02:29:07;;;;;;;6.23;2.60;;;10.00;99.90;;;11.44;52.81;101674.16;6390241;21;123151;-35
2024/04/23 02:31:32;;;;;;;5.10;2.97;;;10.00;99.90;;;11.56;54.51;101675.59;6429861;21;98182;-35
2024/04/23 02:33:58;;;;;;;4.53;3.07;;;10.00;99.90;;;11.50;51.47;101676.63;6438870;21;107293;-35
2024/04/23 02:36:24;;;;;;;2.30;2.10;;;10.00;99.90;;;11.51;52.01;101677.50;6460546;21;108425;-35
2024/04/23 02:38:50;;;;;;;3.17;2.23;;;10.00;99.90;;;11.59;53.42;101675.56;6416236;21;107485;-35
2024/04/23 02:41:18;;;;;;;3.20;2.47;;;10.10;99.90;;;11.65;52.88;101675.41;6381800;21;93758;-35
2024/04/23 02:43:44;;;;;;;5.17;3.07;;;10.20;99.90;;;11.55;50.84;101673.88;6451682;21;93453;-36
2024/04/23 02:46:10;;;;;;;6.30;3.20;;;10.10;99.90;;;11.36;51.01;101667.28;6491057;21;114266;-36
2024/04/23 02:48:35;;;;;;;4.23;3.27;;;9.90;99.90;;;11.35;52.05;101677.00;6450901;21;94243;-35
2024/04/23 02:51:01;;;;;;;4.50;2.57;;;9.80;99.90;;;11.38;50.66;101679.56;6440792;21;105254;-35
2024/04/23 02:53:27;;;;;;;4.67;2.93;;;9.90;99.90;;;11.30;51.86;101684.16;6393982;21;105168;-35
2024/04/23 02:55:52;;;;;;;4.27;2.90;;;9.80;99.90;;;11.34;55.01;101675.25;6379555;21;124590;-35
2024/04/23 02:58:18;;;;;;;3.87;2.43;;;9.70;99.90;;;11.47;54.51;101671.44;6449167;21;115201;-35
2024/04/23 03:00:44;;;;;;;5.40;2.80;;;9.90;99.90;;;11.46;52.01;101669.69;6381683;21;102434;-36
2024/04/23 03:03:10;;;;;;;2.83;1.60;;;9.90;99.90;;;11.52;54.27;101666.91;6490924;21;93584;-36
2024/04/23 03:05:35;;;;;;;1.80;1.50;;;10.00;99.90;;;11.48;54.94;101670.53;6495839;21;102654;-36
2024/04/23 03:08:01;;;;;;;2.83;2.00;;;9.90;99.90;;;11.50;53.89;101666.06;6491407;21;102980;-35
2024/04/23 03:10:27;;;;;;;5.10;2.47;;;9.90;99.90;;;11.55;53.11;101663.31;6452750;21;109460;-36
2024/04/23 03:12:55;;;;;;;4.53;3.00;;;10.00;99.90;;;11.40;48.58;101667.19;6477680;21;114220;-36
2024/04/23 03:15:21;;;;;;;5.00;3.03;;;9.90;99.90;;;11.23;49.43;101664.91;6419825;21;98085;-36
2024/04/23 03:17:47;;;;;;;4.90;2.93;;;9.80;99.90;;;11.21;50.57;101664.09;6492164;21;104413;-36
2024/04/23 03:20:12;;;;;;;3.90;1.70;;;9.70;99.90;;;11.39;55.04;101656.66;6492493;21;93610;-35
2024/04/23 03:22:38;;;;;;;7.27;2.70;;;9.80;99.90;;;11.35;52.80;101660.28;6385138;21;100159;-35
2024/04/23 03:25:05;;;;;;;3.97;2.73;;;9.80;99.90;;;11.33;51.75;101658.53;6471932;21;101792;-36
2024/04/23 03:27:30;;;;;;;3.70;2.40;;;9.80;99.90;;;11.37;52.87;101654.03;6391148;21;104144;-34
2024/04/23 03:29:56;;;;;;;3.57;2.27;;;9.80;99.90;;;11.39;54.04;101652.22;6397885;21;93639;-36
2024/04/23 03:32:22;;;;;;;3.40;1.90;;;9.80;99.90;;;11.48;54.79;101652.03;6487740;21;102637;-35
2024/04/23 03:34:47;;;;;;;2.87;1.77;;;9.80;99.90;;;11.54;55.07;101651.88;6490821;21;119664;-42
2024/04/23 03:37:13;;;;;;;3.00;2.23;;;9.90;99.90;;;11.50;54.46;101642.28;6450619;21;96562;-34
2024/04/23 03:39:39;;;;;;;2.67;1.97;;;10.00;99.90;;;11.61;54.78;101642.91;6478326;21;106130;-36
2024/04/23 03:42:05;;;;;;;3.10;2.00;;;10.10;99.90;;;11.67;54.77;101643.66;6429434;21;93606;-36
2024/04/23 03:44:31;;;;;;;5.73;2.73;;;10.10;99.90;;;11.59;52.03;101638.56;6485382;21;95397;-36
2024/04/23 03:46:57;;;;;;;9.53;2.60;;;10.10;99.90;;;11.62;51.50;101644.63;6425861;21;96040;-43
2024/04/23 03:49:22;;;;;;;2.93;1.73;;;10.10;99.90;;;11.48;53.30;101628.25;6471486;21;108247;-35
2024/04/23 03:51:48;;;;;;;2.40;1.70;;;9.90;99.90;;;11.47;54.14;101629.16;6406952;21;93050;-35
2024/04/23 03:54:14;;;;;;;2.23;1.97;;;9.80;99.90;;;11.52;53.85;101632.53;6494018;21;95079;-35
2024/04/23 03:56:40;;;;;;;6.57;2.93;;;9.90;99.90;;;11.41;52.05;101633.69;6469827;21;94507;-37
2024/04/23 03:59:05;;;;;;;3.33;2.07;;;9.80;99.90;;;11.32;52.97;101637.44;6442689;21;93622;-35
2024/04/23 04:01:31;;;;;;;3.67;2.57;;;9.70;99.90;;;11.29;53.97;101634.88;6476982;21;102244;-35
2024/04/23 04:06:41;;;;;;;2.83;1.93;;;9.70;99.90;;;11.33;53.98;101644.47;6354068;21;97520;-34
2024/04/23 04:09:07;;;;;;;3.83;2.20;;;9.70;99.90;;;11.34;54.11;101638.28;6327476;21;105756;-36
2024/04/23 04:11:34;;;;;;;3.17;2.13;;;9.80;99.90;;;11.27;52.14;101647.22;6343269;21;111849;-35
2024/04/23 04:14:00;;;;;;;3.23;1.80;;;9.80;99.90;;;11.25;53.76;101643.75;6404544;21;95563;-35
2024/04/23 04:16:29;;;;;;;3.57;2.20;;;9.70;99.90;;;11.40;54.54;101646.03;6429661;21;93775;-35
2024/04/23 04:18:56;;;;;;;1.63;1.37;;;9.80;99.90;;;11.48;55.34;101652.03;6407098;21;93479;-37
2024/04/23 04:21:22;;;;;;;4.70;3.00;;;9.90;99.90;;;11.48;51.90;101641.47;6434636;21;93369;-35
2024/04/23 04:23:48;;;;;;;2.57;2.27;;;10.00;99.90;;;11.25;49.38;101643.75;6409826;21;123842;-38
2024/04/23 04:26:16;;;;;;;4.13;2.17;;;9.80;99.90;;;11.41;54.52;101645.13;6467154;21;102646;-37
2024/04/23 04:28:42;;;;;;;4.67;2.50;;;9.80;99.90;;;11.17;50.42;101643.06;6492778;21;93575;-35
2024/04/23 04:31:08;;;;;;;4.93;3.07;;;9.80;99.90;;;11.14;51.44;101656.31;6492958;21;93337;-36
2024/04/23 04:33:36;;;;;;;5.27;3.10;;;9.60;99.90;;;11.09;52.86;101666.13;6477995;21;101334;-33
2024/04/23 04:36:03;;;;;;;2.07;1.27;;;9.60;99.90;;;11.44;55.92;101658.28;6426615;21;95936;-37
2024/04/23 04:38:29;;;;;;;1.73;1.40;;;10.00;99.90;;;11.63;55.26;101667.53;6464048;21;93269;-35
2024/04/23 04:40:54;;;;;;;1.73;1.40;;;10.30;99.90;;;11.85;54.54;101667.00;6441583;21;103250;-36
2024/04/23 04:43:20;;;;;;;2.80;1.53;;;10.70;99.90;;;11.99;53.95;101664.88;6494062;21;119145;-35
2024/04/23 04:45:46;;;;;;;1.57;1.13;;;11.00;99.90;;;12.18;53.50;101665.31;6354091;21;95185;-35
2024/04/23 04:48:12;;;;;;;2.13;1.50;;;11.20;99.90;;;12.33;53.28;101658.72;6411741;21;102762;-36
2024/04/23 04:50:38;;;;;;;3.80;2.17;;;11.40;99.90;;;12.45;52.38;101663.69;6396933;21;93398;-36
2024/04/23 04:53:04;;;;;;;2.00;0.90;;;11.50;99.90;;;12.52;52.79;101659.97;6428591;21;96484;-36
2024/04/23 04:55:30;;;;;;;2.10;1.40;;;11.40;99.90;;;12.63;52.46;101663.19;6488771;21;104582;-35
2024/04/23 04:57:56;;;;;;;2.20;1.47;;;11.50;99.90;;;12.71;52.28;101671.75;6468444;21;93723;-36
2024/04/23 05:00:22;;;;;;;2.67;1.63;;;11.60;99.90;;;12.79;52.05;101664.47;6405857;21;101534;-35
2024/04/23 05:02:48;;;;;;;4.27;2.47;;;11.80;99.90;;;12.57;50.50;101665.97;6424499;21;100207;-36
2024/04/23 05:05:14;;;;;;;6.50;2.80;;;11.30;99.90;;;12.50;49.72;101672.38;6466931;21;94206;-36
2024/04/23 05:07:39;;;;;;;2.07;1.73;;;11.10;99.90;;;12.40;51.60;101671.75;6459459;21;107745;-36
2024/04/23 05:10:06;;;;;;;4.13;2.00;;;10.90;99.90;;;12.31;51.41;101677.28;6465349;21;114440;-35
2024/04/23 05:12:37;;;;;;;2.33;1.40;;;10.70;99.90;;;12.19;51.70;101675.84;6488785;21;97023;-38
2024/04/23 05:15:05;;;;;;;3.20;1.80;;;10.60;99.90;;;12.15;52.53;101676.84;6484575;21;95665;-37
2024/04/23 05:17:30;;;;;;;3.33;2.23;;;10.50;99.90;;;12.09;51.94;101679.63;6476285;21;93782;-34
2024/04/23 05:19:56;;;;;;;1.93;1.57;;;10.50;99.90;;;12.00;51.92;101682.50;6478663;21;110945;-35
2024/04/23 05:22:23;;;;;;;5.63;2.30;;;10.50;99.90;;;11.95;52.68;101679.09;6447366;21;112949;-34
2024/04/23 05:24:49;;;;;;;2.07;1.50;;;10.30;99.90;;;12.03;53.59;101682.44;6452622;21;95771;-35
2024/04/23 05:27:18;;;;;;;3.70;2.20;;;10.50;99.90;;;11.81;50.72;101684.72;6496068;21;93519;-36
2024/04/23 05:29:46;;;;;;;3.77;2.03;;;10.30;99.90;;;11.83;53.43;101684.69;6475674;21;93613;-36
2024/04/23 05:35:07;;;;;;;2.30;1.67;;;10.40;99.90;;;11.96;53.76;101683.47;6405678;21;96866;-36
2024/04/23 05:37:32;;;;;;;5.53;3.10;;;10.50;99.90;;;11.83;50.41;101687.34;6480528;21;102273;-35
2024/04/23 05:39:58;;;;;;;4.70;2.40;;;10.40;99.90;;;11.67;48.82;101686.81;6473914;21;102837;-35
2024/04/23 05:42:24;;;;;;;4.57;2.60;;;10.30;99.90;;;11.87;54.15;101681.09;6476278;21;120872;-34
2024/04/23 05:44:49;;;;;;;3.67;2.20;;;10.40;99.90;;;11.72;47.97;101682.28;6491874;21;105183;-34
2024/04/23 05:47:15;;;;;;;2.83;1.73;;;10.40;99.90;;;11.80;53.87;101684.78;6477855;21;93641;-36
2024/04/23 05:50:37;;;;;;;4.43;2.17;;;10.40;99.90;;;11.96;54.06;101680.84;6446441;21;106397;-34
2024/04/23 05:53:59;;;;;;;2.60;1.93;;;10.60;99.90;;;12.28;53.60;101684.41;6469732;21;99818;-36
2024/04/23 05:56:25;;;;;;;2.33;1.30;;;11.20;99.90;;;12.41;53.14;101684.06;6498298;21;99846;-35
2024/04/23 05:58:51;;;;;;;1.63;1.10;;;11.40;99.90;;;12.60;52.80;101689.75;6418749;21;105108;-35
2024/04/23 06:01:17;;;;;;;1.63;1.40;;;11.70;99.90;;;12.79;52.37;101685.66;6514416;21;94327;-35
2024/04/23 06:03:42;;;;;;;7.13;2.90;;;12.10;99.90;;;12.93;50.96;101681.75;6470657;21;102905;-33
2024/04/23 06:06:08;;;;;;;5.93;3.97;;;12.30;99.90;;;12.74;43.90;101686.72;6492109;21;99740;-35
2024/04/23 06:08:34;;;;;;;5.90;4.40;;;12.10;99.90;;;12.62;46.02;101687.03;6477713;21;100396;-35
2024/04/23 06:10:59;;;;;;;2.20;1.57;;;11.70;99.90;;;12.52;51.72;101689.06;6454563;21;104298;-37
2024/04/23 06:13:27;;;;;;;1.77;1.60;;;11.50;99.90;;;12.64;51.93;101686.09;6470678;21;123562;-35
2024/04/23 06:15:53;;;;;;;1.60;1.20;;;11.70;99.90;;;12.75;52.08;101677.84;6492851;21;99518;-34
2024/04/23 06:18:22;;;;;;;1.07;0.87;;;11.80;99.90;;;12.95;51.54;101685.22;6429593;21;106976;-36
2024/04/23 06:20:52;;;;;;;3.53;2.17;;;12.20;99.90;;;13.03;49.14;101689.38;6436482;21;93614;-34
2024/04/23 06:23:21;;;;;;;1.57;1.20;;;12.30;99.90;;;13.06;51.06;101693.72;6359980;21;101000;-33
2024/04/23 06:25:47;;;;;;;4.20;2.70;;;12.20;99.90;;;13.16;50.54;101695.16;6435696;21;94510;-36
2024/04/23 06:28:13;;;;;;;2.50;1.27;;;12.30;99.90;;;13.20;50.84;101686.25;6475009;21;93775;-34
2024/04/23 06:30:41;;;;;;;2.53;1.80;;;12.40;99.90;;;13.25;49.55;101686.97;6488510;21;104959;-35
2024/04/23 06:33:06;;;;;;;2.77;2.27;;;12.40;99.90;;;13.23;50.18;101686.16;6389349;21;94371;-36
2024/04/23 06:35:35;;;;;;;7.13;4.60;;;12.30;99.90;;;12.93;44.04;101681.75;6391084;21;112904;-36
2024/04/23 06:38:00;;;;;;;7.03;4.03;;;12.00;99.90;;;12.54;44.11;101686.38;6491097;21;93969;-36
2024/04/23 06:40:26;;;;;;;10.20;5.27;;;11.60;99.90;;;12.28;44.25;101680.00;6461095;21;103842;-35
2024/04/23 06:42:52;;;;;;;2.70;1.80;;;11.40;99.90;;;12.51;51.82;101685.56;6405106;21;121870;-36
2024/04/23 06:45:18;;;;;;;7.50;4.20;;;11.40;99.90;;;12.62;48.94;101672.03;6479873;21;109342;-37
2024/04/23 06:47:44;;;;;;;5.40;3.50;;;11.60;99.90;;;12.43;46.43;101671.66;6431136;21;93654;-36
2024/04/23 06:50:10;;;;;;;6.97;4.27;;;11.50;99.90;;;12.15;47.27;101674.19;6478625;21;94041;-35
2024/04/23 06:52:39;;;;;;;2.83;1.70;;;11.30;99.90;;;12.68;51.89;101666.56;6491643;21;95703;-36
2024/04/23 06:55:04;;;;;;;8.03;4.50;;;11.80;99.90;;;12.53;43.46;101672.28;6410051;21;95611;-36
2024/04/23 06:57:30;;;;;;;4.57;3.20;;;11.90;99.90;;;12.38;48.63;101662.13;6420388;21;93527;-35
2024/04/23 06:59:56;;;;;;;2.13;1.57;;;11.60;99.90;;;12.63;51.89;101668.47;6450514;21;93274;-35
2024/04/23 07:02:22;;;;;;;2.33;1.20;;;11.80;99.90;;;12.60;50.85;101665.06;6401805;21;117228;-35
2024/04/23 07:04:48;;;;;;;2.30;1.13;;;11.70;99.90;;;12.86;51.41;101664.28;6427177;21;94212;-36
2024/04/23 07:07:13;;;;;;;4.77;1.60;;;12.10;99.90;;;13.00;49.93;101675.34;6452724;21;93344;-35
2024/04/23 07:09:39;;;;;;;2.50;1.80;;;12.40;99.90;;;13.04;50.71;101675.22;6305737;21;94085;-34
2024/04/23 07:12:08;;;;;;;1.77;1.60;;;12.30;99.90;;;13.17;48.45;101674.84;6328703;21;93911;-36
2024/04/23 07:14:34;;;;;;;3.03;2.40;;;12.50;99.90;;;13.05;44.14;101671.66;6256441;21;103228;-36
2024/04/23 07:17:00;;;;;;;5.20;2.53;;;12.40;99.90;;;12.56;39.44;101666.88;6260056;21;94783;-36
2024/04/23 07:19:26;;;;;;;4.00;2.27;;;11.90;99.90;;;12.21;40.14;101676.66;6331414;21;93271;-35
2024/04/23 07:21:54;;;;;;;3.60;2.00;;;11.50;99.90;;;12.46;43.40;101673.38;6366847;21;108809;-36
2024/04/23 07:24:20;;;;;;;4.73;2.43;;;11.60;99.90;;;12.12;38.74;101666.31;6342743;21;94550;-36
2024/04/23 07:26:49;;;;;;;3.13;2.40;;;11.40;99.90;;;12.21;50.30;101670.50;6281370;21;93500;-36
2024/04/23 07:29:15;;;;;;;2.43;1.40;;;11.40;99.90;;;12.28;50.54;101660.63;6365114;21;94411;-36
2024/04/23 07:31:41;;;;;;;3.03;2.00;;;11.50;99.90;;;12.69;51.09;101673.56;6280658;21;111432;-37
2024/04/23 07:34:07;;;;;;;5.07;2.20;;;12.10;99.90;;;12.90;47.55;101666.81;6352821;21;94721;-36
2024/04/23 07:36:32;;;;;;;5.10;2.70;;;12.50;99.90;;;12.70;42.32;101664.72;6332852;21;94574;-36
2024/04/23 07:38:58;;;;;;;3.47;2.67;;;12.30;99.90;;;12.50;40.81;101656.50;6326544;21;93714;-35
2024/04/23 07:41:24;;;;;;;2.90;2.33;;;12.10;99.90;;;12.30;41.76;101650.88;6318534;21;121600;-36
2024/04/23 07:43:50;;;;;;;3.43;2.33;;;11.80;99.90;;;12.19;40.10;101657.31;6295354;21;96149;-36
2024/04/23 07:46:15;;;;;;;2.30;1.70;;;11.70;99.90;;;12.06;45.40;101658.53;6316783;21;93751;-34
2024/04/23 07:48:41;;;;;;;2.40;1.50;;;11.50;99.90;;;12.43;51.71;101655.78;6283146;21;95426;-34
2024/04/23 07:51:10;;;;;;;4.33;2.93;;;11.80;99.90;;;12.39;40.91;101648.84;6279865;21;116226;-35
2024/04/23 07:53:36;;;;;;;4.13;2.83;;;12.10;99.90;;;11.92;38.61;101650.09;6325786;21;94363;-35
2024/04/23 07:56:02;;;;;;;2.20;1.20;;;11.60;99.90;;;12.33;51.29;101654.31;6310298;21;94312;-36
2024/04/23 07:58:28;;;;;;;4.00;2.77;;;11.70;99.90;;;12.58;44.38;101643.03;6307550;21;94504;-36
2024/04/23 08:00:55;;;;;;;3.27;2.30;;;12.20;99.90;;;12.35;38.61;101641.91;6328901;21;96252;-36
2024/04/23 08:03:20;;;;;;;6.13;2.90;;;12.10;99.90;;;12.17;39.33;101637.13;6337152;21;95209;-36
2024/04/23 08:05:53;;;;;;;3.80;2.10;;;11.70;99.90;;;12.09;43.28;101628.50;6379991;21;97965;-36
2024/04/23 08:08:27;;;;;;;6.07;2.50;;;11.60;99.90;;;11.93;45.61;101633.31;6375822;21;97439;-35
2024/04/23 08:10:55;;;;;;;2.80;1.87;;;11.50;99.90;;;11.86;47.93;101627.34;6174151;21;105093;-35
2024/04/23 08:13:27;;;;;;;6.53;2.90;;;11.40;99.90;;;11.61;38.71;101624.41;6303407;21;94991;-36
2024/04/23 08:15:58;;;;;;;6.63;3.50;;;11.30;99.90;;;11.60;41.15;101620.03;6387520;21;94552;-34
2024/04/23 08:18:29;;;;;;;2.03;1.20;;;11.20;99.90;;;11.82;50.24;101619.50;6341079;21;103954;-36
2024/04/23 08:20:58;;;;;;;1.40;1.30;;;11.30;99.90;;;12.24;49.80;101632.50;6353866;21;99941;-36
2024/04/23 08:23:27;;;;;;;3.50;2.40;;;11.70;99.90;;;12.13;38.70;101630.16;6420391;21;99331;-35
2024/04/23 08:25:53;;;;;;;4.30;2.47;;;11.80;99.90;;;12.06;43.30;101620.66;6309508;21;94261;-35
2024/04/23 08:28:22;;;;;;;2.33;1.17;;;11.60;99.90;;;12.58;50.18;101627.16;6339195;21;93720;-36
2024/04/23 08:30:48;;;;;;;6.60;2.70;;;12.10;99.90;;;12.69;45.99;101620.63;6212353;21;120855;-36
2024/04/23 08:33:14;;;;;;;6.53;3.00;;;12.30;99.90;;;12.77;40.40;101618.63;6287104;21;95399;-35
2024/04/23 08:35:39;;;;;;;5.47;3.03;;;12.40;99.90;;;12.83;40.66;101622.88;6266014;21;104241;-35
2024/04/23 08:38:05;;;;;;;6.27;3.03;;;12.50;99.70;;;12.71;37.64;101625.88;6408008;21;93624;-41
2024/04/23 08:40:31;;;;;;;8.03;3.30;;;12.30;99.30;;;12.68;41.49;101623.34;6419313;21;95938;-36
2024/04/23 08:43:11;;;;;;;5.93;3.23;;;12.20;99.90;;;12.46;37.90;101620.44;6330579;21;101261;-36
2024/04/23 08:45:40;;;;;;;7.17;3.87;;;12.10;99.10;;;12.41;38.01;101624.97;6298787;21;93968;-37
2024/04/23 08:48:06;;;;;;;4.60;3.03;;;12.00;99.70;;;12.30;38.30;101621.78;6288006;21;95152;-35
2024/04/23 08:50:34;;;;;;;4.17;2.17;;;11.90;99.90;;;12.42;39.54;101616.13;6313231;21;95427;-36
2024/04/23 08:53:01;;;;;;;4.10;2.93;;;12.00;99.90;;;12.54;48.52;101621.06;6261284;21;97146;-35
2024/04/23 08:55:32;;;;;;;5.33;3.13;;;12.10;99.90;;;12.49;40.82;101607.13;6290182;21;94551;-34
2024/04/23 08:58:05;;;;;;;4.20;2.43;;;12.20;99.90;;;12.54;40.48;101607.84;6184522;21;95221;-35
2024/04/23 09:00:31;;;;;;;4.10;2.50;;;12.20;99.40;;;12.69;43.36;101607.41;6315892;21;100717;-35
2024/04/23 09:03:00;;;;;;;3.37;2.50;;;12.30;99.90;;;12.63;38.23;101604.94;6438133;21;95130;-35
2024/04/23 09:05:29;;;;;;;3.17;2.50;;;12.40;96.90;;;12.61;43.30;101598.84;6264096;21;93385;-36
2024/04/23 09:07:55;;;;;;;8.63;2.60;;;12.30;99.30;;;12.87;45.88;101598.03;6310304;21;95356;-35
2024/04/23 09:10:21;;;;;;;3.30;2.07;;;12.60;99.90;;;12.84;37.20;101591.97;6326780;21;95551;-36
2024/04/23 09:12:50;;;;;;;5.13;2.87;;;12.60;96.40;;;12.77;34.82;101596.59;6344101;21;94035;-35
2024/04/23 09:15:16;;;;;;;4.70;2.53;;;12.60;94.90;;;12.98;39.27;101589.78;6278699;21;93480;-35
2024/04/23 09:17:57;;;;;;;2.73;1.00;;;12.70;97.90;;;13.25;47.81;101588.94;6358485;21;100307;-36
2024/04/23 09:20:24;;;;;;;4.00;2.00;;;13.00;99.90;;;13.35;40.96;101590.38;6256348;21;101914;-35
2024/04/23 09:23:04;;;;;;;3.50;2.17;;;13.20;97.80;;;13.38;46.32;101582.34;6161274;21;95456;-36
2024/04/23 09:25:36;;;;;;;3.27;2.20;;;13.10;99.90;;;13.37;36.08;101577.94;6370460;21;96496;-37
2024/04/23 09:28:05;;;;;;;3.43;2.27;;;13.10;94.20;;;13.40;44.39;101572.53;6407947;21;94341;-36
2024/04/23 09:30:31;;;;;;;2.03;1.20;;;13.00;99.20;;;13.73;46.42;101572.31;6315404;21;94416;-35
2024/04/23 09:33:04;;;;;;;3.13;2.33;;;13.50;99.90;;;13.82;40.73;101569.38;6378325;21;99802;-35
2024/04/23 09:35:30;;;;;;;2.10;1.27;;;13.60;95.80;;;13.96;45.46;101564.44;6232392;21;94056;-36
2024/04/23 09:37:56;;;;;;;1.90;1.17;;;13.70;99.90;;;14.18;45.41;101550.44;6304263;21;93304;-34
2024/04/23 09:40:24;;;;;;;3.07;2.13;;;14.00;99.90;;;14.13;36.28;101557.66;6372704;21;95819;-36
2024/04/23 09:42:53;;;;;;;4.07;2.00;;;14.10;95.60;;;14.05;37.46;101559.75;6394066;21;93537;-37
2024/04/23 09:45:25;;;;;;;3.30;1.67;;;14.00;94.80;;;14.10;44.29;101553.34;6345386;21;94669;-35
2024/04/23 09:47:51;;;;;;;3.93;2.40;;;13.90;99.90;;;13.80;33.11;101555.28;6289781;21;93514;-37
2024/04/23 09:50:18;;;;;;;3.23;2.07;;;13.70;92.30;;;13.65;33.90;101558.47;6315387;21;110557;-36
2024/04/23 09:52:48;;;;;;;3.43;1.80;;;13.50;92.50;;;13.92;35.88;101554.88;6365083;21;95884;-35
2024/04/23 09:55:17;;;;;;;3.10;2.20;;;13.80;96.60;;;13.63;32.74;101552.38;6241768;21;94397;-37
2024/04/23 09:57:48;;;;;;;4.60;2.30;;;13.50;91.10;;;13.42;33.14;101548.63;6434378;21;97956;-36
2024/04/23 10:00:20;;;;;;;3.23;2.13;;;13.30;91.70;;;13.61;45.22;101543.59;6296233;21;102719;-35
2024/04/23 10:02:59;;;;;;;3.87;2.13;;;13.30;99.90;;;13.61;35.88;101533.00;6388978;21;94618;-36
2024/04/23 10:05:37;;;;;;;3.53;2.43;;;13.40;93.60;;;13.55;35.49;101534.06;6256524;21;93534;-36
2024/04/23 10:08:16;;;;;;;3.37;1.63;;;13.30;92.80;;;13.55;42.84;101528.75;6333050;21;101812;-36
2024/04/23 10:10:47;;;;;;;2.77;1.80;;;13.30;93.70;;;13.68;41.44;101531.84;6290547;21;94580;-34
2024/04/23 10:13:26;;;;;;;1.77;1.00;;;13.50;95.20;;;14.07;45.58;101531.38;6308710;21;94459;-37
2024/04/23 10:16:38;;;;;;;2.90;1.13;;;14.00;99.90;;;14.44;44.94;101515.81;6257653;21;93704;-34
2024/04/23 10:19:11;;;;;;;1.43;0.90;;;14.50;99.90;;;14.67;44.58;101522.06;6300714;21;94060;-36